createdAt,value
2019-05-05T00:00:52.043Z,12.30
2019-05-05T00:01:52.036Z,12.70
2019-05-05T00:02:52.013Z,12.20
2019-05-05T00:03:52.021Z,12.80
2019-05-05T00:04:54.301Z,12.50
2019-05-05T00:05:52.004Z,12.70
2019-05-05T00:06:52.001Z,11.90
2019-05-05T00:07:54.064Z,12.60
2019-05-05T00:08:51.972Z,12.80
2019-05-05T00:09:51.958Z,13.40
2019-05-05T00:10:54.527Z,12.10
2019-05-05T00:11:51.959Z,12.20
2019-05-05T00:12:51.939Z,12.50
2019-05-05T00:13:52.132Z,12.10
2019-05-05T00:14:51.922Z,12.70
2019-05-05T00:15:51.931Z,11.60
2019-05-05T00:16:51.918Z,12.60
2019-05-05T00:17:51.896Z,12.70
2019-05-05T00:18:54.147Z,12.70
2019-05-05T00:19:51.884Z,12.70
2019-05-05T00:20:51.889Z,13.20
2019-05-05T00:21:52.086Z,13.10
2019-05-05T00:22:52.076Z,13.30
2019-05-05T00:23:51.848Z,13.00
2019-05-05T00:24:51.856Z,13.10
2019-05-05T00:25:51.835Z,12.90
2019-05-05T00:26:51.851Z,13.00
2019-05-05T00:27:51.829Z,12.30
2019-05-05T00:28:51.815Z,11.30
2019-05-05T00:29:51.811Z,12.10
2019-05-05T00:30:51.811Z,11.90
2019-05-05T00:31:51.799Z,12.90
2019-05-05T00:32:51.797Z,12.40
2019-05-05T00:33:51.789Z,12.70
2019-05-05T00:34:51.773Z,11.80
2019-05-05T00:35:51.761Z,12.60
2019-05-05T00:36:51.755Z,12.20
2019-05-05T00:37:51.747Z,11.80
2019-05-05T00:38:51.739Z,12.10
2019-05-05T00:39:51.725Z,12.00
2019-05-05T00:40:51.719Z,12.60
2019-05-05T00:41:51.719Z,12.30
2019-05-05T00:42:51.714Z,13.30
2019-05-05T00:43:51.717Z,13.10
2019-05-05T00:44:51.710Z,12.40
2019-05-05T00:45:51.697Z,13.40
2019-05-05T00:46:51.701Z,12.10
2019-05-05T00:47:51.662Z,13.60
2019-05-05T00:48:51.876Z,13.20
2019-05-05T00:49:51.866Z,12.80
2019-05-05T00:50:51.962Z,13.30
2019-05-05T00:51:51.649Z,14.00
2019-05-05T00:52:51.628Z,14.20
2019-05-05T00:53:51.626Z,15.20
2019-05-05T00:54:51.823Z,15.00
2019-05-05T00:55:51.597Z,15.30
2019-05-05T00:56:51.603Z,14.60
2019-05-05T00:57:51.783Z,14.40
2019-05-05T00:58:51.777Z,13.20
2019-05-05T00:59:51.570Z,13.60
2019-05-05T01:00:51.554Z,13.30
2019-05-05T01:01:51.576Z,13.20
2019-05-05T01:02:51.542Z,13.30
2019-05-05T01:03:51.738Z,13.20
2019-05-05T01:04:51.732Z,14.50
2019-05-05T01:05:51.721Z,14.40
2019-05-05T01:06:51.511Z,13.90
2019-05-05T01:07:51.721Z,15.70
2019-05-05T01:08:51.498Z,15.30
2019-05-05T01:09:51.495Z,16.00
2019-05-05T01:10:51.485Z,16.00
2019-05-05T01:11:51.467Z,16.00
2019-05-05T01:12:51.476Z,16.00
2019-05-05T01:13:51.475Z,15.80
2019-05-05T01:14:51.454Z,16.30
2019-05-05T01:15:51.453Z,15.80
2019-05-05T01:16:51.442Z,16.30
2019-05-05T01:17:51.428Z,15.50
2019-05-05T01:18:51.622Z,15.80
2019-05-05T01:20:01.281Z,14.70
2019-05-05T01:20:51.418Z,14.60
2019-05-05T01:21:51.406Z,15.60
2019-05-05T01:22:51.378Z,15.40
2019-05-05T01:23:51.371Z,15.20
2019-05-05T01:24:51.378Z,14.80
2019-05-05T01:25:51.367Z,15.50
2019-05-05T01:26:51.356Z,15.70
2019-05-05T01:27:51.356Z,14.20
2019-05-05T01:28:51.335Z,15.60
2019-05-05T01:29:51.325Z,14.70
2019-05-05T01:30:51.314Z,14.30
2019-05-05T01:31:51.329Z,13.90
2019-05-05T01:32:51.303Z,12.50
2019-05-05T01:33:51.306Z,12.60
2019-05-05T01:34:51.287Z,12.70
2019-05-05T01:35:51.294Z,12.30
2019-05-05T01:36:51.271Z,10.80
2019-05-05T01:37:51.265Z,11.10
2019-05-05T01:38:51.264Z,10.80
2019-05-05T01:39:51.247Z,11.50
2019-05-05T01:40:51.243Z,10.90
2019-05-05T01:41:51.240Z,9.40
2019-05-05T01:42:51.226Z,9.00
2019-05-05T01:43:51.215Z,9.30
2019-05-05T01:44:51.202Z,9.00
2019-05-05T01:45:51.193Z,8.90
2019-05-05T01:46:51.189Z,9.60
2019-05-05T01:47:51.193Z,9.40
2019-05-05T01:48:51.173Z,8.60
2019-05-05T01:49:51.182Z,9.50
2019-05-05T01:50:51.161Z,9.10
2019-05-05T01:51:51.161Z,9.20
2019-05-05T01:52:51.153Z,9.20
2019-05-05T01:53:51.140Z,9.20
2019-05-05T01:54:51.138Z,9.20
2019-05-05T01:55:51.328Z,9.50
2019-05-05T01:56:52.456Z,9.30
2019-05-05T01:57:51.112Z,9.80
2019-05-05T01:58:51.100Z,9.40
2019-05-05T01:59:51.093Z,9.60
2019-05-05T02:00:51.101Z,9.00
2019-05-05T02:01:51.278Z,8.80
2019-05-05T02:02:51.073Z,9.70
2019-05-05T02:03:51.056Z,8.60
2019-05-05T02:04:51.046Z,9.10
2019-05-05T02:05:51.252Z,7.90
2019-05-05T02:06:51.033Z,8.70
2019-05-05T02:07:51.243Z,8.40
2019-05-05T02:08:51.019Z,8.20
2019-05-05T02:09:51.013Z,7.90
2019-05-05T02:10:51.012Z,7.90
2019-05-05T02:11:51.219Z,8.00
2019-05-05T02:12:50.987Z,7.30
2019-05-05T02:13:50.974Z,7.20
2019-05-05T02:14:50.982Z,7.50
2019-05-05T02:15:50.965Z,6.80
2019-05-05T02:16:50.949Z,7.00
2019-05-05T02:17:51.149Z,7.00
2019-05-05T02:18:50.951Z,7.10
2019-05-05T02:19:50.944Z,6.90
2019-05-05T02:20:50.920Z,6.90
2019-05-05T02:21:50.924Z,8.30
2019-05-05T02:22:50.917Z,7.70
2019-05-05T02:23:50.894Z,8.50
2019-05-05T02:24:50.903Z,8.80
2019-05-05T02:25:51.100Z,9.80
2019-05-05T02:26:51.077Z,10.00
2019-05-05T02:27:51.072Z,10.80
2019-05-05T02:28:50.863Z,10.10
2019-05-05T02:29:50.866Z,10.30
2019-05-05T02:30:50.841Z,10.70
2019-05-05T02:31:50.851Z,10.40
2019-05-05T02:32:50.821Z,10.20
2019-05-05T02:33:50.830Z,10.70
2019-05-05T02:34:50.820Z,10.80
2019-05-05T02:35:50.810Z,11.50
2019-05-05T02:36:50.797Z,10.80
2019-05-05T02:37:50.988Z,11.20
2019-05-05T02:38:50.988Z,11.80
2019-05-05T02:39:58.957Z,11.00
2019-05-05T02:40:50.974Z,11.90
2019-05-05T02:41:50.762Z,12.10
2019-05-05T02:42:50.758Z,11.80
2019-05-05T02:43:50.751Z,11.50
2019-05-05T02:44:50.743Z,11.60
2019-05-05T02:45:50.943Z,11.60
2019-05-05T02:46:50.715Z,13.00
2019-05-05T02:47:50.708Z,12.60
2019-05-05T02:48:50.708Z,13.20
2019-05-05T02:49:50.907Z,13.30
2019-05-05T02:50:55.956Z,13.10
2019-05-05T02:51:50.876Z,12.80
2019-05-05T02:52:50.874Z,12.90
2019-05-05T02:53:50.674Z,12.00
2019-05-05T02:54:50.643Z,11.40
2019-05-05T02:55:50.649Z,11.90
2019-05-05T02:56:50.633Z,12.10
2019-05-05T02:57:50.836Z,13.40
2019-05-05T02:58:50.637Z,13.80
2019-05-05T02:59:50.618Z,13.20
2019-05-05T03:00:50.595Z,12.80
2019-05-05T03:01:50.685Z,13.00
2019-05-05T03:02:50.578Z,13.00
2019-05-05T03:03:50.572Z,13.90
2019-05-05T03:04:50.567Z,13.30
2019-05-05T03:05:50.566Z,13.10
2019-05-05T03:06:50.547Z,13.10
2019-05-05T03:07:50.555Z,12.60
2019-05-05T03:08:50.531Z,12.10
2019-05-05T03:09:50.523Z,11.50
2019-05-05T03:10:50.514Z,11.70
2019-05-05T03:11:50.521Z,11.30
2019-05-05T03:12:50.498Z,11.40
2019-05-05T03:13:50.497Z,11.10
2019-05-05T03:14:50.484Z,11.40
2019-05-05T03:15:50.481Z,11.70
2019-05-05T03:16:50.670Z,13.20
2019-05-05T03:17:50.482Z,11.10
2019-05-05T03:18:50.445Z,11.90
2019-05-05T03:19:50.472Z,11.60
2019-05-05T03:21:01.666Z,11.60
2019-05-05T03:21:50.435Z,12.00
2019-05-05T03:22:50.426Z,12.10
2019-05-05T03:23:50.450Z,12.00
2019-05-05T03:24:50.611Z,12.70
2019-05-05T03:25:50.411Z,11.90
2019-05-05T03:26:50.591Z,12.30
2019-05-05T03:27:50.378Z,11.90
2019-05-05T03:28:50.386Z,11.50
2019-05-05T03:29:50.359Z,12.00
2019-05-05T03:30:50.349Z,12.00
2019-05-05T03:31:50.343Z,11.10
2019-05-05T03:32:50.557Z,11.60
2019-05-05T03:33:50.356Z,11.80
2019-05-05T03:34:50.331Z,11.30
2019-05-05T03:35:50.325Z,11.90
2019-05-05T03:36:50.320Z,11.80
2019-05-05T03:37:50.505Z,11.20
2019-05-05T03:38:50.309Z,11.20
2019-05-05T03:39:50.289Z,10.40
2019-05-05T03:40:50.281Z,10.50
2019-05-05T03:41:50.287Z,11.00
2019-05-05T03:42:50.263Z,11.60
2019-05-05T03:43:50.452Z,10.00
2019-05-05T03:44:50.236Z,10.70
2019-05-05T03:45:50.229Z,10.60
2019-05-05T03:46:50.219Z,10.70
2019-05-05T03:47:50.424Z,10.30
2019-05-05T03:48:50.220Z,9.60
2019-05-05T03:49:50.211Z,9.50
2019-05-05T03:50:50.215Z,9.20
2019-05-05T03:51:50.185Z,9.60
2019-05-05T03:52:50.184Z,9.10
2019-05-05T03:53:50.164Z,9.00
2019-05-05T03:54:50.386Z,9.30
2019-05-05T03:55:50.352Z,10.50
2019-05-05T03:56:50.163Z,9.90
2019-05-05T03:57:50.151Z,9.20
2019-05-05T03:58:50.131Z,10.00
2019-05-05T03:59:50.325Z,10.20
2019-05-05T04:00:50.110Z,10.10
2019-05-05T04:01:50.111Z,10.90
2019-05-05T04:02:50.103Z,10.80
2019-05-05T04:03:50.291Z,10.10
2019-05-05T04:04:50.106Z,10.00
2019-05-05T04:05:50.084Z,9.60
2019-05-05T04:06:50.068Z,10.40
2019-05-05T04:07:50.077Z,9.90
2019-05-05T04:08:50.056Z,9.60
2019-05-05T04:09:50.326Z,9.70
2019-05-05T04:10:50.033Z,9.20
2019-05-05T04:11:50.032Z,9.90
2019-05-05T04:12:50.023Z,8.90
2019-05-05T04:13:50.014Z,9.10
2019-05-05T04:14:49.998Z,9.10
2019-05-05T04:15:50.204Z,9.00
2019-05-05T04:16:49.999Z,9.70
2019-05-05T04:17:49.980Z,8.80
2019-05-05T04:18:49.980Z,9.50
2019-05-05T04:19:49.966Z,8.70
2019-05-05T04:20:50.281Z,9.80
2019-05-05T04:21:49.965Z,8.30
2019-05-05T04:22:49.953Z,8.90
2019-05-05T04:23:49.944Z,9.40
2019-05-05T04:24:49.926Z,8.90
2019-05-05T04:25:49.916Z,9.10
2019-05-05T04:26:49.915Z,9.30
2019-05-05T04:27:49.900Z,10.00
2019-05-05T04:28:49.886Z,8.90
2019-05-05T04:29:49.888Z,8.90
2019-05-05T04:30:49.878Z,8.90
2019-05-05T04:31:49.876Z,8.50
2019-05-05T04:32:49.863Z,8.80
2019-05-05T04:33:50.058Z,8.60
2019-05-05T04:34:49.848Z,7.80
2019-05-05T04:35:49.851Z,9.20
2019-05-05T04:36:49.844Z,9.00
2019-05-05T04:37:49.840Z,8.90
2019-05-05T04:38:49.819Z,9.00
2019-05-05T04:39:49.811Z,8.40
2019-05-05T04:40:49.793Z,8.50
2019-05-05T04:41:49.789Z,8.60
2019-05-05T04:42:49.795Z,9.60
2019-05-05T04:43:49.774Z,8.50
2019-05-05T04:44:49.780Z,9.10
2019-05-05T04:45:49.770Z,8.90
2019-05-05T04:46:49.757Z,9.20
2019-05-05T04:47:49.775Z,9.20
2019-05-05T04:48:49.749Z,9.60
2019-05-05T04:49:49.732Z,8.80
2019-05-05T04:50:49.736Z,9.10
2019-05-05T04:51:50.537Z,9.00
2019-05-05T04:52:49.726Z,9.10
2019-05-05T04:53:49.703Z,8.70
2019-05-05T04:54:49.690Z,9.20
2019-05-05T04:55:49.687Z,9.00
2019-05-05T04:56:49.692Z,9.20
2019-05-05T04:57:49.671Z,9.00
2019-05-05T04:58:49.660Z,9.50
2019-05-05T04:59:49.666Z,9.10
2019-05-05T05:00:49.854Z,8.80
2019-05-05T05:01:49.641Z,9.30
2019-05-05T05:02:49.631Z,8.40
2019-05-05T05:03:49.637Z,9.40
2019-05-05T05:04:49.626Z,9.20
2019-05-05T05:05:49.631Z,8.80
2019-05-05T05:06:49.606Z,8.70
2019-05-05T05:07:49.596Z,9.10
2019-05-05T05:08:49.612Z,8.90
2019-05-05T05:09:49.597Z,9.10
2019-05-05T05:10:49.579Z,8.50
2019-05-05T05:11:49.586Z,9.00
2019-05-05T05:12:49.559Z,9.50
2019-05-05T05:13:49.553Z,9.10
2019-05-05T05:14:49.566Z,9.40
2019-05-05T05:15:49.539Z,8.60
2019-05-05T05:16:49.556Z,9.30
2019-05-05T05:17:49.533Z,9.10
2019-05-05T05:18:49.731Z,9.10
2019-05-05T05:19:49.526Z,9.10
2019-05-05T05:20:49.704Z,9.00
2019-05-05T05:21:59.380Z,9.70
2019-05-05T05:22:49.498Z,9.90
2019-05-05T05:23:49.683Z,8.80
2019-05-05T05:24:49.483Z,9.40
2019-05-05T05:25:49.477Z,8.70
2019-05-05T05:26:49.472Z,8.50
2019-05-05T05:27:49.450Z,8.60
2019-05-05T05:28:49.453Z,10.20
2019-05-05T05:29:49.438Z,10.70
2019-05-05T05:30:49.429Z,9.30
2019-05-05T05:31:49.634Z,10.10
2019-05-05T05:32:49.413Z,9.60
2019-05-05T05:33:49.417Z,10.10
2019-05-05T05:34:49.406Z,9.60
2019-05-05T05:35:49.392Z,10.90
2019-05-05T05:36:49.391Z,10.10
2019-05-05T05:37:49.383Z,10.40
2019-05-05T05:38:49.390Z,10.00
2019-05-05T05:39:49.379Z,10.40
2019-05-05T05:40:49.376Z,9.70
2019-05-05T05:41:49.355Z,10.50
2019-05-05T05:42:49.341Z,10.30
2019-05-05T05:43:49.352Z,10.40
2019-05-05T05:44:49.331Z,11.00
2019-05-05T05:45:49.321Z,9.90
2019-05-05T05:46:49.322Z,10.40
2019-05-05T05:47:49.324Z,10.60
2019-05-05T05:48:49.296Z,9.80
2019-05-05T05:49:49.298Z,10.20
2019-05-05T05:50:49.487Z,10.20
2019-05-05T05:51:49.287Z,10.70
2019-05-05T05:52:49.271Z,10.50
2019-05-05T05:53:49.264Z,10.70
2019-05-05T05:54:49.275Z,11.20
2019-05-05T05:55:49.264Z,10.40
2019-05-05T05:56:49.446Z,11.30
2019-05-05T05:57:49.248Z,10.40
2019-05-05T05:58:49.233Z,11.30
2019-05-05T05:59:49.243Z,10.40
2019-05-05T06:00:49.212Z,10.50
2019-05-05T06:01:49.227Z,9.80
2019-05-05T06:02:49.214Z,10.90
2019-05-05T06:03:49.197Z,10.40
2019-05-05T06:04:49.196Z,10.20
2019-05-05T06:05:49.193Z,10.70
2019-05-05T06:06:49.179Z,10.60
2019-05-05T06:07:49.194Z,10.90
2019-05-05T06:08:49.166Z,10.80
2019-05-05T06:09:49.152Z,10.70
2019-05-05T06:10:49.351Z,11.70
2019-05-05T06:11:49.350Z,11.10
2019-05-05T06:12:49.136Z,11.40
2019-05-05T06:13:49.337Z,11.10
2019-05-05T06:14:49.122Z,11.10
2019-05-05T06:15:49.316Z,11.40
2019-05-05T06:16:49.097Z,10.80
2019-05-05T06:17:49.111Z,11.00
2019-05-05T06:18:49.093Z,10.80
2019-05-05T06:19:49.084Z,12.30
2019-05-05T06:20:49.074Z,11.90
2019-05-05T06:21:49.280Z,12.00
2019-05-05T06:22:49.069Z,12.00
2019-05-05T06:23:49.064Z,11.30
2019-05-05T06:24:49.045Z,11.40
2019-05-05T06:25:49.034Z,11.60
2019-05-05T06:26:49.228Z,11.70
2019-05-05T06:27:49.032Z,12.50
2019-05-05T06:28:49.239Z,11.80
2019-05-05T06:29:49.012Z,12.40
2019-05-05T06:30:49.023Z,12.20
2019-05-05T06:31:49.212Z,12.40
2019-05-05T06:32:48.986Z,12.50
2019-05-05T06:33:48.987Z,12.20
2019-05-05T06:34:48.976Z,12.50
2019-05-05T06:35:48.969Z,12.40
2019-05-05T06:36:48.985Z,11.10
2019-05-05T06:37:48.963Z,11.70
2019-05-05T06:38:48.954Z,12.00
2019-05-05T06:39:48.933Z,11.40
2019-05-05T06:40:48.950Z,11.40
2019-05-05T06:41:48.929Z,11.50
2019-05-05T06:42:48.925Z,12.20
2019-05-05T06:43:48.913Z,11.70
2019-05-05T06:44:48.896Z,12.70
2019-05-05T06:45:49.092Z,12.70
2019-05-05T06:46:49.109Z,12.80
2019-05-05T06:47:48.872Z,12.80
2019-05-05T06:48:48.886Z,13.70
2019-05-05T06:49:48.861Z,13.60
2019-05-05T06:50:48.849Z,13.30
2019-05-05T06:51:48.843Z,13.50
2019-05-05T06:52:48.840Z,12.10
2019-05-05T06:53:48.832Z,12.10
2019-05-05T06:54:48.827Z,13.00
2019-05-05T06:55:50.474Z,12.90
2019-05-05T06:56:48.820Z,13.60
2019-05-05T06:57:48.810Z,13.40
2019-05-05T06:58:49.003Z,13.20
2019-05-05T06:59:48.790Z,13.70
2019-05-05T07:00:48.785Z,13.80
2019-05-05T07:01:48.766Z,14.10
2019-05-05T07:02:48.788Z,13.20
2019-05-05T07:03:48.752Z,13.30
2019-05-05T07:04:48.752Z,13.70
2019-05-05T07:05:48.760Z,14.20
2019-05-05T07:06:54.154Z,14.00
2019-05-05T07:07:48.731Z,14.50
2019-05-05T07:08:48.726Z,15.20
2019-05-05T07:09:48.927Z,13.30
2019-05-05T07:10:48.723Z,14.20
2019-05-05T07:11:48.701Z,15.90
2019-05-05T07:12:48.704Z,15.40
2019-05-05T07:13:48.887Z,17.00
2019-05-05T07:14:48.673Z,15.80
2019-05-05T07:15:48.679Z,16.50
2019-05-05T07:16:48.661Z,18.70
2019-05-05T07:17:48.655Z,19.10
2019-05-05T07:18:48.646Z,18.50
2019-05-05T07:19:48.650Z,19.80
2019-05-05T07:20:48.638Z,21.90
2019-05-05T07:21:48.629Z,27.60
2019-05-05T07:22:58.687Z,29.30
2019-05-05T07:23:48.610Z,30.30
2019-05-05T07:24:48.618Z,29.00
2019-05-05T07:25:48.629Z,28.10
2019-05-05T07:26:48.588Z,28.10
2019-05-05T07:27:48.592Z,27.40
2019-05-05T07:28:48.575Z,27.90
2019-05-05T07:29:48.577Z,26.30
2019-05-05T07:30:48.588Z,25.70
2019-05-05T07:31:48.549Z,27.30
2019-05-05T07:32:48.544Z,25.00
2019-05-05T07:33:48.540Z,25.00
2019-05-05T07:34:48.540Z,24.90
2019-05-05T07:35:58.648Z,23.50
2019-05-05T07:36:48.515Z,24.60
2019-05-05T07:37:48.511Z,25.40
2019-05-05T07:38:48.509Z,25.30
2019-05-05T07:39:48.486Z,23.70
2019-05-05T07:40:48.494Z,24.10
2019-05-05T07:41:48.478Z,26.00
2019-05-05T07:42:48.476Z,25.90
2019-05-05T07:43:48.463Z,25.30
2019-05-05T07:44:48.452Z,24.60
2019-05-05T07:45:48.454Z,24.60
2019-05-05T07:46:48.441Z,23.80
2019-05-05T07:47:48.447Z,22.70
2019-05-05T07:48:48.432Z,21.20
2019-05-05T07:49:48.418Z,21.30
2019-05-05T07:50:59.766Z,21.00
2019-05-05T07:51:48.643Z,18.00
2019-05-05T07:52:48.395Z,17.00
2019-05-05T07:53:48.412Z,16.10
2019-05-05T07:54:48.382Z,15.80
2019-05-05T07:55:48.375Z,15.80
2019-05-05T07:56:48.381Z,15.60
2019-05-05T07:57:48.362Z,18.30
2019-05-05T07:58:48.359Z,17.60
2019-05-05T07:59:48.361Z,16.60
2019-05-05T08:00:48.350Z,16.10
2019-05-05T08:01:48.336Z,15.20
2019-05-05T08:02:48.333Z,14.20
2019-05-05T08:03:48.317Z,14.30
2019-05-05T08:04:48.535Z,14.20
2019-05-05T08:05:48.308Z,13.30
2019-05-05T08:06:48.303Z,13.90
2019-05-05T08:07:48.493Z,12.60
2019-05-05T08:08:48.292Z,12.60
2019-05-05T08:09:48.487Z,12.30
2019-05-05T08:10:48.275Z,11.90
2019-05-05T08:11:48.287Z,11.80
2019-05-05T08:12:48.264Z,11.10
2019-05-05T08:13:48.262Z,10.90
2019-05-05T08:14:48.244Z,10.40
2019-05-05T08:15:59.038Z,12.00
2019-05-05T08:16:48.224Z,12.00
2019-05-05T08:17:48.232Z,11.20
2019-05-05T08:18:48.227Z,11.60
2019-05-05T08:19:48.206Z,12.80
2019-05-05T08:20:48.231Z,13.10
2019-05-05T08:21:48.219Z,14.20
2019-05-05T08:22:48.196Z,13.40
2019-05-05T08:23:48.177Z,14.60
2019-05-05T08:24:48.175Z,14.80
2019-05-05T08:25:48.188Z,12.90
2019-05-05T08:26:48.221Z,13.20
2019-05-05T08:27:48.161Z,15.40
2019-05-05T08:28:48.156Z,13.80
2019-05-05T08:29:48.342Z,13.30
2019-05-05T08:30:48.149Z,13.10
2019-05-05T08:31:48.331Z,12.80
2019-05-05T08:32:48.326Z,12.50
2019-05-05T08:33:48.146Z,12.60
2019-05-05T08:34:58.119Z,13.60
2019-05-05T08:35:48.105Z,13.00
2019-05-05T08:36:48.102Z,12.90
2019-05-05T08:37:48.095Z,11.70
2019-05-05T08:38:48.292Z,12.40
2019-05-05T08:39:48.092Z,12.60
2019-05-05T08:40:48.277Z,11.50
2019-05-05T08:41:48.095Z,11.00
2019-05-05T08:42:48.067Z,11.40
2019-05-05T08:43:48.053Z,12.10
2019-05-05T08:44:48.062Z,11.60
2019-05-05T08:45:48.054Z,11.90
2019-05-05T08:46:48.047Z,11.80
2019-05-05T08:47:48.044Z,12.10
2019-05-05T08:48:48.246Z,12.50
2019-05-05T08:49:48.050Z,13.20
2019-05-05T08:50:48.227Z,15.20
2019-05-05T08:51:48.009Z,15.70
2019-05-05T08:52:48.017Z,14.70
2019-05-05T08:53:48.546Z,13.70
2019-05-05T08:54:48.002Z,14.20
2019-05-05T08:55:47.984Z,15.70
2019-05-05T08:56:47.993Z,15.70
2019-05-05T08:57:47.983Z,14.70
2019-05-05T08:58:49.777Z,15.40
2019-05-05T08:59:47.960Z,15.70
2019-05-05T09:00:47.956Z,15.40
2019-05-05T09:01:47.947Z,15.00
2019-05-05T09:02:47.962Z,13.80
2019-05-05T09:03:47.952Z,12.60
2019-05-05T09:04:47.928Z,12.20
2019-05-05T09:05:47.955Z,12.40
2019-05-05T09:06:47.917Z,12.40
2019-05-05T09:07:47.913Z,11.60
2019-05-05T09:08:47.902Z,11.90
2019-05-05T09:09:47.907Z,11.60
2019-05-05T09:10:47.906Z,11.70
2019-05-05T09:11:48.101Z,11.60
2019-05-05T09:12:47.874Z,11.80
2019-05-05T09:13:47.876Z,10.10
2019-05-05T09:14:47.879Z,9.80
2019-05-05T09:15:47.890Z,9.20
2019-05-05T09:16:47.864Z,8.70
2019-05-05T09:17:47.861Z,8.70
2019-05-05T09:18:47.848Z,8.70
2019-05-05T09:19:47.851Z,8.40
2019-05-05T09:20:47.824Z,7.90
2019-05-05T09:21:47.822Z,7.10
2019-05-05T09:22:47.814Z,7.60
2019-05-05T09:23:58.979Z,7.60
2019-05-05T09:24:47.804Z,7.90
2019-05-05T09:25:47.794Z,7.20
2019-05-05T09:26:47.795Z,7.50
2019-05-05T09:27:47.785Z,8.80
2019-05-05T09:28:47.777Z,7.50
2019-05-05T09:29:47.783Z,8.40
2019-05-05T09:30:47.761Z,7.60
2019-05-05T09:31:47.757Z,7.60
2019-05-05T09:32:47.753Z,8.40
2019-05-05T09:33:47.952Z,7.00
2019-05-05T09:34:47.737Z,6.40
2019-05-05T09:35:47.743Z,7.80
2019-05-05T09:36:47.769Z,6.90
2019-05-05T09:37:47.739Z,6.70
2019-05-05T09:38:47.736Z,7.10
2019-05-05T09:39:47.704Z,7.50
2019-05-05T09:40:47.701Z,7.80
2019-05-05T09:41:47.709Z,6.80
2019-05-05T09:42:47.689Z,6.20
2019-05-05T09:43:47.692Z,6.60
2019-05-05T09:44:47.720Z,5.90
2019-05-05T09:45:47.747Z,6.00
2019-05-05T09:46:47.665Z,6.50
2019-05-05T09:47:47.656Z,7.40
2019-05-05T09:48:47.655Z,9.50
2019-05-05T09:49:47.645Z,9.10
2019-05-05T09:50:47.651Z,9.30
2019-05-05T09:51:47.652Z,10.40
2019-05-05T09:52:47.643Z,8.10
2019-05-05T09:53:47.630Z,9.80
2019-05-05T09:54:47.817Z,9.30
2019-05-05T09:55:47.835Z,9.70
2019-05-05T09:56:47.611Z,10.50
2019-05-05T09:57:47.594Z,10.00
2019-05-05T09:58:47.593Z,10.10
2019-05-05T09:59:47.581Z,9.90
2019-05-05T10:00:47.573Z,9.90
2019-05-05T10:01:47.790Z,9.30
2019-05-05T10:02:47.572Z,9.20
2019-05-05T10:03:47.596Z,10.40
2019-05-05T10:04:47.569Z,10.00
2019-05-05T10:05:47.558Z,9.30
2019-05-05T10:06:47.983Z,9.60
2019-05-05T10:07:47.538Z,10.00
2019-05-05T10:08:47.535Z,10.60
2019-05-05T10:09:47.529Z,9.90
2019-05-05T10:10:47.525Z,11.00
2019-05-05T10:11:47.506Z,9.60
2019-05-05T10:12:47.503Z,9.90
2019-05-05T10:13:47.492Z,9.40
2019-05-05T10:14:47.488Z,11.40
2019-05-05T10:15:47.476Z,10.00
2019-05-05T10:16:47.490Z,9.60
2019-05-05T10:17:47.479Z,9.40
2019-05-05T10:18:47.457Z,9.70
2019-05-05T10:19:47.659Z,10.90
2019-05-05T10:20:47.655Z,10.00
2019-05-05T10:21:47.670Z,10.20
2019-05-05T10:22:47.434Z,8.90
2019-05-05T10:23:47.428Z,9.30
2019-05-05T10:24:47.439Z,9.70
2019-05-05T10:25:47.428Z,9.00
2019-05-05T10:26:47.405Z,9.50
2019-05-05T10:27:47.747Z,9.10
2019-05-05T10:28:47.408Z,10.00
2019-05-05T10:29:47.385Z,9.40
2019-05-05T10:30:47.379Z,8.90
2019-05-05T10:31:47.384Z,8.90
2019-05-05T10:32:47.577Z,8.70
2019-05-05T10:33:47.375Z,8.80
2019-05-05T10:34:47.352Z,8.80
2019-05-05T10:35:47.350Z,9.40
2019-05-05T10:36:47.361Z,8.80
2019-05-05T10:37:47.356Z,9.00
2019-05-05T10:38:47.337Z,9.70
2019-05-05T10:39:47.324Z,9.70
2019-05-05T10:40:48.386Z,8.40
2019-05-05T10:41:47.528Z,8.90
2019-05-05T10:42:47.529Z,8.70
2019-05-05T10:43:47.302Z,8.10
2019-05-05T10:44:47.295Z,7.80
2019-05-05T10:45:47.295Z,7.90
2019-05-05T10:46:47.284Z,8.00
2019-05-05T10:47:47.476Z,7.40
2019-05-05T10:48:47.268Z,8.00
2019-05-05T10:49:47.483Z,8.00
2019-05-05T10:50:47.465Z,6.90
2019-05-05T10:51:47.249Z,7.50
2019-05-05T10:52:47.240Z,6.30
2019-05-05T10:53:47.235Z,7.10
2019-05-05T10:54:47.258Z,7.10
2019-05-05T10:55:47.233Z,7.00
2019-05-05T10:56:47.217Z,6.60
2019-05-05T10:57:47.217Z,7.30
2019-05-05T10:58:47.219Z,6.80
2019-05-05T10:59:47.206Z,6.80
2019-05-05T11:00:47.201Z,7.60
2019-05-05T11:01:47.199Z,7.10
2019-05-05T11:02:47.188Z,7.10
2019-05-05T11:03:47.176Z,7.00
2019-05-05T11:04:47.179Z,7.00
2019-05-05T11:05:47.166Z,6.80
2019-05-05T11:06:47.163Z,6.50
2019-05-05T11:07:47.153Z,7.70
2019-05-05T11:08:47.150Z,7.70
2019-05-05T11:09:47.144Z,7.50
2019-05-05T11:10:47.141Z,7.70
2019-05-05T11:11:47.139Z,7.30
2019-05-05T11:12:47.129Z,6.80
2019-05-05T11:13:47.122Z,7.10
2019-05-05T11:14:47.126Z,7.30
2019-05-05T11:15:47.112Z,6.70
2019-05-05T11:16:47.101Z,7.10
2019-05-05T11:17:47.102Z,7.10
2019-05-05T11:18:47.094Z,6.50
2019-05-05T11:19:50.149Z,6.50
2019-05-05T11:20:47.098Z,6.60
2019-05-05T11:21:47.084Z,5.20
2019-05-05T11:22:47.068Z,4.50
2019-05-05T11:23:47.071Z,4.90
2019-05-05T11:24:57.344Z,5.20
2019-05-05T11:25:47.050Z,5.50
2019-05-05T11:26:47.053Z,5.70
2019-05-05T11:27:47.043Z,5.30
2019-05-05T11:28:47.028Z,5.50
2019-05-05T11:29:47.034Z,5.70
2019-05-05T11:30:47.026Z,5.60
2019-05-05T11:31:47.019Z,5.30
2019-05-05T11:32:47.214Z,5.60
2019-05-05T11:33:46.999Z,5.20
2019-05-05T11:34:47.000Z,5.70
2019-05-05T11:35:47.185Z,5.50
2019-05-05T11:36:46.975Z,6.30
2019-05-05T11:37:46.978Z,6.00
2019-05-05T11:38:46.968Z,6.10
2019-05-05T11:39:46.975Z,6.60
2019-05-05T11:40:46.960Z,7.10
2019-05-05T11:41:46.972Z,6.50
2019-05-05T11:42:46.954Z,7.00
2019-05-05T11:43:46.939Z,6.20
2019-05-05T11:44:47.570Z,6.00
2019-05-05T11:45:46.936Z,5.60
2019-05-05T11:46:46.931Z,5.80
2019-05-05T11:47:46.918Z,5.80
2019-05-05T11:48:46.907Z,6.60
2019-05-05T11:49:47.121Z,5.40
2019-05-05T11:50:47.095Z,4.90
2019-05-05T11:51:46.893Z,4.80
2019-05-05T11:52:46.904Z,4.60
2019-05-05T11:53:47.095Z,4.60
2019-05-05T11:54:46.875Z,4.80
2019-05-05T11:55:46.869Z,5.20
2019-05-05T11:56:46.890Z,4.90
2019-05-05T11:57:46.863Z,4.40
2019-05-05T11:58:46.854Z,4.80
2019-05-05T11:59:46.849Z,5.40
2019-05-05T12:00:46.861Z,4.60
2019-05-05T12:01:46.838Z,5.90
2019-05-05T12:02:46.845Z,5.30
2019-05-05T12:03:46.818Z,5.30
2019-05-05T12:04:46.817Z,5.80
2019-05-05T12:05:46.825Z,5.80
2019-05-05T12:06:46.805Z,6.00
2019-05-05T12:07:46.809Z,6.80
2019-05-05T12:08:46.809Z,6.30
2019-05-05T12:09:46.786Z,6.20
2019-05-05T12:10:46.793Z,6.80
2019-05-05T12:11:46.775Z,7.00
2019-05-05T12:12:46.974Z,6.80
2019-05-05T12:13:46.777Z,5.90
2019-05-05T12:14:46.975Z,7.20
2019-05-05T12:15:46.764Z,6.90
2019-05-05T12:16:46.766Z,6.60
2019-05-05T12:17:46.958Z,7.30
2019-05-05T12:18:46.735Z,7.00
2019-05-05T12:19:48.499Z,7.10
2019-05-05T12:20:46.734Z,6.60
2019-05-05T12:21:46.740Z,7.00
2019-05-05T12:22:46.711Z,7.70
2019-05-05T12:23:46.725Z,8.90
2019-05-05T12:24:46.711Z,73.50
2019-05-05T12:25:46.715Z,13.10
2019-05-05T12:26:46.699Z,9.50
2019-05-05T12:27:46.690Z,9.20
2019-05-05T12:28:46.692Z,9.00
2019-05-05T12:29:46.673Z,9.40
2019-05-05T12:30:46.671Z,10.20
2019-05-05T12:31:46.684Z,10.80
2019-05-05T12:32:46.654Z,11.30
2019-05-05T12:33:46.650Z,11.40
2019-05-05T12:34:46.644Z,13.10
2019-05-05T12:35:46.656Z,13.00
2019-05-05T12:36:46.642Z,13.30
2019-05-05T12:37:46.649Z,12.80
2019-05-05T12:38:46.634Z,13.30
2019-05-05T12:39:46.610Z,15.10
2019-05-05T12:40:46.619Z,14.40
2019-05-05T12:41:46.596Z,16.40
2019-05-05T12:42:46.589Z,17.60
2019-05-05T12:43:46.594Z,17.30
2019-05-05T12:44:46.595Z,16.30
2019-05-05T12:45:46.575Z,15.80
2019-05-05T12:46:46.571Z,16.10
2019-05-05T12:47:46.579Z,15.60
2019-05-05T12:48:46.559Z,14.30
2019-05-05T12:49:46.558Z,13.90
2019-05-05T12:50:46.557Z,14.90
2019-05-05T12:51:46.536Z,14.70
2019-05-05T12:52:46.548Z,12.80
2019-05-05T12:53:46.541Z,11.60
2019-05-05T12:54:46.533Z,12.70
2019-05-05T12:55:46.539Z,13.20
2019-05-05T12:56:46.532Z,12.90
2019-05-05T12:57:46.512Z,11.00
2019-05-05T12:58:46.524Z,13.20
2019-05-05T12:59:46.711Z,12.50
2019-05-05T13:00:46.478Z,12.70
2019-05-05T13:01:46.473Z,11.90
2019-05-05T13:02:46.484Z,12.60
2019-05-05T13:03:46.474Z,11.90